Millerville, Massachusetts
Current Conditions -  °F | °C
As of 2:35 PM on Friday 28 Nov 2014 (Local Time) from KSFZ Reporting Station
Broken Clouds Broken Clouds  
Wind Chill: 24°   Ceiling: 3900
Heat Index: 34°   Visibility: 10mi
Dew Point: 16°   Wind: 14mph
Humidity: 48%   Direction: 300°WNW
Pressure: 30.05"   Gusts: 21mph
Location:  42.0416°N, 71.5423°W
Report Text: KSFZ 281935Z 30012G18KT 10SM BKN039 01/M09 A3005 RMK AO1
Loading
Personal Weather Stations






























Interactive Weather Map New forecast layout! Learn more

10-Day Weather Forecast

Advertisements
Track Severe Weather on mobile